sensor_id;sensor_type;location;lat;lon;timestamp;pressure;altitude;pressure_sealevel;temperature;humidity
46007;BME280;31738;50.188;8.524;2023-04-22T00:00:03;98252.03;;;13.10;73.52
46007;BME280;31738;50.188;8.524;2023-04-22T00:02:31;98254.22;;;13.08;73.83
46007;BME280;31738;50.188;8.524;2023-04-22T00:04:56;98255.31;;;13.07;73.75
46007;BME280;31738;50.188;8.524;2023-04-22T00:07:22;98251.81;;;13.07;73.84
46007;BME280;31738;50.188;8.524;2023-04-22T00:09:48;98241.03;;;13.07;73.83
46007;BME280;31738;50.188;8.524;2023-04-22T00:12:14;98243.75;;;13.07;73.70
46007;BME280;31738;50.188;8.524;2023-04-22T00:14:39;98241.03;;;13.07;73.78
46007;BME280;31738;50.188;8.524;2023-04-22T00:17:05;98241.34;;;13.05;74.08
46007;BME280;31738;50.188;8.524;2023-04-22T00:19:33;98243.22;;;13.05;74.13
46007;BME280;31738;50.188;8.524;2023-04-22T00:21:59;98239.75;;;13.04;74.35
46007;BME280;31738;50.188;8.524;2023-04-22T00:24:24;98242.47;;;13.04;74.19
46007;BME280;31738;50.188;8.524;2023-04-22T00:26:50;98239.25;;;13.02;74.50
46007;BME280;31738;50.188;8.524;2023-04-22T00:29:15;98244.66;;;13.02;74.74
46007;BME280;31738;50.188;8.524;2023-04-22T00:31:41;98228.25;;;12.99;74.90
46007;BME280;31738;50.188;8.524;2023-04-22T00:34:06;98238.25;;;12.98;74.80
46007;BME280;31738;50.188;8.524;2023-04-22T00:36:32;98237.44;;;12.98;74.82
46007;BME280;31738;50.188;8.524;2023-04-22T00:38:57;98237.44;;;12.98;75.01
46007;BME280;31738;50.188;8.524;2023-04-22T00:41:23;98228.25;;;12.99;75.07
46007;BME280;31738;50.188;8.524;2023-04-22T00:43:49;98226.66;;;12.98;75.06
46007;BME280;31738;50.188;8.524;2023-04-22T00:46:15;98226.66;;;12.98;75.32
46007;BME280;31738;50.188;8.524;2023-04-22T00:48:40;98218.59;;;12.98;75.28
46007;BME280;31738;50.188;8.524;2023-04-22T00:51:06;98225.88;;;12.97;75.26
46007;BME280;31738;50.188;8.524;2023-04-22T00:53:32;98222.09;;;12.98;75.19
46007;BME280;31738;50.188;8.524;2023-04-22T00:55:58;98222.88;;;12.99;75.11
46007;BME280;31738;50.188;8.524;2023-04-22T00:58:27;98226.09;;;13.01;74.98
46007;BME280;31738;50.188;8.524;2023-04-22T01:00:53;98226.09;;;13.01;75.16
46007;BME280;31738;50.188;8.524;2023-04-22T01:03:19;98224.50;;;13.00;75.05
46007;BME280;31738;50.188;8.524;2023-04-22T01:05:46;98219.13;;;13.00;75.14
46007;BME280;31738;50.188;8.524;2023-04-22T01:08:13;98224.50;;;13.00;75.16
46007;BME280;31738;50.188;8.524;2023-04-22T01:10:40;98217.50;;;12.99;75.47
46007;BME280;31738;50.188;8.524;2023-04-22T01:13:05;98209.72;;;12.97;75.59
46007;BME280;31738;50.188;8.524;2023-04-22T01:15:31;98210.53;;;12.98;75.79
46007;BME280;31738;50.188;8.524;2023-04-22T01:17:58;98205.13;;;12.98;75.72
46007;BME280;31738;50.188;8.524;2023-04-22T01:20:27;98198.94;;;12.97;75.67
46007;BME280;31738;50.188;8.524;2023-04-22T01:22:57;98203.53;;;12.97;75.76
46007;BME280;31738;50.188;8.524;2023-04-22T01:25:24;98204.63;;;12.96;76.15
46007;BME280;31738;50.188;8.524;2023-04-22T01:27:50;98201.13;;;12.95;76.06
46007;BME280;31738;50.188;8.524;2023-04-22T01:30:17;98201.94;;;12.96;75.99
46007;BME280;31738;50.188;8.524;2023-04-22T01:32:43;98192.28;;;12.95;76.22
46007;BME280;31738;50.188;8.524;2023-04-22T01:35:09;98194.66;;;12.96;76.29
46007;BME280;31738;50.188;8.524;2023-04-22T01:37:34;98198.44;;;12.95;75.96
46007;BME280;31738;50.188;8.524;2023-04-22T01:40:02;98191.16;;;12.96;75.92
46007;BME280;31738;50.188;8.524;2023-04-22T01:42:29;98199.53;;;12.94;76.30
46007;BME280;31738;50.188;8.524;2023-04-22T01:44:55;98197.97;;;12.93;76.10
46007;BME280;31738;50.188;8.524;2023-04-22T01:47:20;98198.25;;;12.92;76.17
46007;BME280;31738;50.188;8.524;2023-04-22T01:49:46;98196.19;;;12.89;76.79
46007;BME280;31738;50.188;8.524;2023-04-22T01:52:11;98196.97;;;12.89;77.00
46007;BME280;31738;50.188;8.524;2023-04-22T01:54:37;98200.44;;;12.90;76.33
46007;BME280;31738;50.188;8.524;2023-04-22T01:57:08;98206.34;;;12.92;76.39
46007;BME280;31738;50.188;8.524;2023-04-22T01:59:35;98201.56;;;12.89;76.28
46007;BME280;31738;50.188;8.524;2023-04-22T02:02:01;98196.97;;;12.89;76.37
46007;BME280;31738;50.188;8.524;2023-04-22T02:04:26;98198.88;;;12.89;76.53
46007;BME280;31738;50.188;8.524;2023-04-22T02:06:52;98196.19;;;12.89;76.23
46007;BME280;31738;50.188;8.524;2023-04-22T02:09:17;98199.94;;;12.88;76.58
46007;BME280;31738;50.188;8.524;2023-04-22T02:11:43;98198.38;;;12.87;76.63
46007;BME280;31738;50.188;8.524;2023-04-22T02:14:08;98195.97;;;12.85;76.43
46007;BME280;31738;50.188;8.524;2023-04-22T02:16:34;98196.28;;;12.84;76.49
46007;BME280;31738;50.188;8.524;2023-04-22T02:18:59;98192.78;;;12.83;76.45
46007;BME280;31738;50.188;8.524;2023-04-22T02:21:27;98196.28;;;12.84;76.67
46007;BME280;31738;50.188;8.524;2023-04-22T02:23:53;98198.16;;;12.83;76.53
46007;BME280;31738;50.188;8.524;2023-04-22T02:26:18;98200.38;;;12.81;76.63
46007;BME280;31738;50.188;8.524;2023-04-22T02:28:45;98201.16;;;12.82;77.05
46007;BME280;31738;50.188;8.524;2023-04-22T02:31:10;98191.78;;;12.79;76.83
46007;BME280;31738;50.188;8.524;2023-04-22T02:33:38;98190.22;;;12.78;76.94
46007;BME280;31738;50.188;8.524;2023-04-22T02:36:07;98192.91;;;12.78;76.97
46007;BME280;31738;50.188;8.524;2023-04-22T02:38:32;98190.50;;;12.77;76.90
46007;BME280;31738;50.188;8.524;2023-04-22T02:40:58;98196.19;;;12.75;76.86
46007;BME280;31738;50.188;8.524;2023-04-22T02:43:23;98193.81;;;12.74;76.96
46007;BME280;31738;50.188;8.524;2023-04-22T02:45:49;98189.81;;;12.71;76.95
46007;BME280;31738;50.188;8.524;2023-04-22T02:48:15;98192.50;;;12.71;76.83
46007;BME280;31738;50.188;8.524;2023-04-22T02:50:41;98200.56;;;12.71;77.01
46007;BME280;31738;50.188;8.524;2023-04-22T02:53:07;98192.78;;;12.70;76.90
46007;BME280;31738;50.188;8.524;2023-04-22T02:55:32;98192.28;;;12.68;76.83
46007;BME280;31738;50.188;8.524;2023-04-22T02:57:58;98197.97;;;12.66;77.04
46007;BME280;31738;50.188;8.524;2023-04-22T03:00:23;98195.56;;;12.65;76.82
46007;BME280;31738;50.188;8.524;2023-04-22T03:02:49;98196.38;;;12.65;77.35
46007;BME280;31738;50.188;8.524;2023-04-22T03:05:22;98200.97;;;12.65;77.01
46007;BME280;31738;50.188;8.524;2023-04-22T03:07:52;98208.94;;;12.56;76.93
46007;BME280;31738;50.188;8.524;2023-04-22T03:10:18;98209.31;;;12.50;77.35
46007;BME280;31738;50.188;8.524;2023-04-22T03:12:43;98209.31;;;12.50;77.54
46007;BME280;31738;50.188;8.524;2023-04-22T03:15:10;98204.75;;;12.50;77.29
46007;BME280;31738;50.188;8.524;2023-04-22T03:17:36;98207.97;;;12.52;77.20
46007;BME280;31738;50.188;8.524;2023-04-22T03:20:06;98206.34;;;12.51;77.23
46007;BME280;31738;50.188;8.524;2023-04-22T03:22:32;98204.75;;;12.50;77.31
46007;BME280;31738;50.188;8.524;2023-04-22T03:25:00;98214.72;;;12.50;77.61
46007;BME280;31738;50.188;8.524;2023-04-22T03:27:31;98207.75;;;12.49;77.69
46007;BME280;31738;50.188;8.524;2023-04-22T03:29:57;98214.72;;;12.50;77.53
46007;BME280;31738;50.188;8.524;2023-04-22T03:32:23;98211.25;;;12.49;77.37
46007;BME280;31738;50.188;8.524;2023-04-22T03:34:58;98209.53;;;12.40;77.35
46007;BME280;31738;50.188;8.524;2023-04-22T03:37:23;98211.50;;;12.34;77.52
46007;BME280;31738;50.188;8.524;2023-04-22T03:39:48;98210.13;;;12.37;77.28
46007;BME280;31738;50.188;8.524;2023-04-22T03:42:17;98207.91;;;12.39;77.22
46007;BME280;31738;50.188;8.524;2023-04-22T03:44:43;98205.75;;;12.41;77.19
46007;BME280;31738;50.188;8.524;2023-04-22T03:47:09;98212.69;;;12.42;77.10
46007;BME280;31738;50.188;8.524;2023-04-22T03:49:41;98212.69;;;12.42;76.82
46007;BME280;31738;50.188;8.524;2023-04-22T03:52:07;98211.13;;;12.41;76.68
46007;BME280;31738;50.188;8.524;2023-04-22T03:54:35;98218.09;;;12.42;76.86
46007;BME280;31738;50.188;8.524;2023-04-22T03:57:01;98212.69;;;12.42;76.81
46007;BME280;31738;50.188;8.524;2023-04-22T03:59:27;98217.59;;;12.40;76.87
46007;BME280;31738;50.188;8.524;2023-04-22T04:01:53;98222.47;;;12.38;76.93
46007;BME280;31738;50.188;8.524;2023-04-22T04:04:23;98220.88;;;12.37;76.66
46007;BME280;31738;50.188;8.524;2023-04-22T04:06:54;98217.09;;;12.38;76.94
46007;BME280;31738;50.188;8.524;2023-04-22T04:09:20;98215.69;;;12.40;76.67
46007;BME280;31738;50.188;8.524;2023-04-22T04:11:46;98219.09;;;12.46;76.79
46007;BME280;31738;50.188;8.524;2023-04-22T04:14:12;98223.66;;;12.45;76.54
46007;BME280;31738;50.188;8.524;2023-04-22T04:16:44;98217.50;;;12.45;76.59
46007;BME280;31738;50.188;8.524;2023-04-22T04:19:14;98225.06;;;12.43;76.32
46007;BME280;31738;50.188;8.524;2023-04-22T04:21:40;98224.56;;;12.41;76.89
46007;BME280;31738;50.188;8.524;2023-04-22T04:24:06;98227.84;;;12.38;77.06
46007;BME280;31738;50.188;8.524;2023-04-22T04:26:36;98223.88;;;12.35;76.89
46007;BME280;31738;50.188;8.524;2023-04-22T04:29:08;98217.69;;;12.35;76.94
46007;BME280;31738;50.188;8.524;2023-04-22T04:31:36;98213.13;;;12.35;76.84
46007;BME280;31738;50.188;8.524;2023-04-22T04:34:03;98215.50;;;12.37;76.94
46007;BME280;31738;50.188;8.524;2023-04-22T04:36:29;98206.34;;;12.38;76.69
46007;BME280;31738;50.188;8.524;2023-04-22T04:39:06;98217.69;;;12.35;76.93
46007;BME280;31738;50.188;8.524;2023-04-22T04:41:34;98210.44;;;12.35;76.78
46007;BME280;31738;50.188;8.524;2023-04-22T04:44:01;98216.28;;;12.37;77.10
46007;BME280;31738;50.188;8.524;2023-04-22T04:46:32;98208.22;;;12.37;76.85
46007;BME280;31738;50.188;8.524;2023-04-22T04:48:59;98212.22;;;12.40;76.69
46007;BME280;31738;50.188;8.524;2023-04-22T04:51:27;98208.94;;;12.43;76.78
46007;BME280;31738;50.188;8.524;2023-04-22T04:53:56;98209.72;;;12.43;76.90
46007;BME280;31738;50.188;8.524;2023-04-22T04:56:24;98211.34;;;12.44;76.89
46007;BME280;31738;50.188;8.524;2023-04-22T04:58:50;98223.66;;;12.45;76.59
46007;BME280;31738;50.188;8.524;2023-04-22T05:01:20;98207.53;;;12.45;76.57
46007;BME280;31738;50.188;8.524;2023-04-22T05:03:46;98209.94;;;12.47;76.70
46007;BME280;31738;50.188;8.524;2023-04-22T05:06:15;98203.94;;;12.50;76.60
46007;BME280;31738;50.188;8.524;2023-04-22T05:08:45;98207.16;;;12.52;76.47
46007;BME280;31738;50.188;8.524;2023-04-22T05:11:11;98208.13;;;12.56;76.37
46007;BME280;31738;50.188;8.524;2023-04-22T05:13:37;98209.16;;;12.60;76.18
46007;BME280;31738;50.188;8.524;2023-04-22T05:16:04;98208.03;;;12.61;76.20
46007;BME280;31738;50.188;8.524;2023-04-22T05:18:30;98208.56;;;12.63;76.34
46007;BME280;31738;50.188;8.524;2023-04-22T05:20:58;98210.13;;;12.64;76.01
46007;BME280;31738;50.188;8.524;2023-04-22T05:23:25;98206.34;;;12.65;76.50
46007;BME280;31738;50.188;8.524;2023-04-22T05:25:53;98209.31;;;12.63;76.44
46007;BME280;31738;50.188;8.524;2023-04-22T05:28:18;98203.66;;;12.65;76.05
46007;BME280;31738;50.188;8.524;2023-04-22T05:30:49;98209.03;;;12.65;76.18
46007;BME280;31738;50.188;8.524;2023-04-22T05:33:15;98214.41;;;12.65;76.43
46007;BME280;31738;50.188;8.524;2023-04-22T05:35:41;98216.03;;;12.66;75.79
46007;BME280;31738;50.188;8.524;2023-04-22T05:38:07;98218.72;;;12.66;76.18
46007;BME280;31738;50.188;8.524;2023-04-22T05:40:36;98220.59;;;12.65;76.22
46007;BME280;31738;50.188;8.524;2023-04-22T05:43:03;98240.25;;;12.66;76.59
46007;BME280;31738;50.188;8.524;2023-04-22T05:45:29;98230.56;;;12.65;76.58
46007;BME280;31738;50.188;8.524;2023-04-22T05:47:54;98230.56;;;12.65;76.97
46007;BME280;31738;50.188;8.524;2023-04-22T05:50:21;98221.72;;;12.64;76.92
46007;BME280;31738;50.188;8.524;2023-04-22T05:52:53;98225.16;;;12.65;76.68
46007;BME280;31738;50.188;8.524;2023-04-22T05:55:19;98229.47;;;12.66;77.08
46007;BME280;31738;50.188;8.524;2023-04-22T05:57:44;98229.97;;;12.68;76.84
46007;BME280;31738;50.188;8.524;2023-04-22T06:00:30;98223.50;;;12.69;76.93
46007;BME280;31738;50.188;8.524;2023-04-22T06:03:11;98226.09;;;12.74;76.75
46007;BME280;31738;50.188;8.524;2023-04-22T06:05:37;98222.69;;;12.82;76.71
46007;BME280;31738;50.188;8.524;2023-04-22T06:08:02;98218.19;;;12.91;76.45
46007;BME280;31738;50.188;8.524;2023-04-22T06:10:28;98221.28;;;12.98;76.52
46007;BME280;31738;50.188;8.524;2023-04-22T06:12:53;98221.09;;;13.08;75.89
46007;BME280;31738;50.188;8.524;2023-04-22T06:15:19;98225.47;;;13.17;75.46
46007;BME280;31738;50.188;8.524;2023-04-22T06:17:47;98223.34;;;13.28;75.20
46007;BME280;31738;50.188;8.524;2023-04-22T06:20:13;98232.31;;;13.37;75.09
46007;BME280;31738;50.188;8.524;2023-04-22T06:22:38;98238.09;;;13.44;74.53
46007;BME280;31738;50.188;8.524;2023-04-22T06:25:04;98227.47;;;13.47;74.58
46007;BME280;31738;50.188;8.524;2023-04-22T06:27:30;98230.88;;;13.53;74.59
46007;BME280;31738;50.188;8.524;2023-04-22T06:29:56;98229.66;;;13.59;74.40
46007;BME280;31738;50.188;8.524;2023-04-22T06:32:21;98224.94;;;13.64;74.66
46007;BME280;31738;50.188;8.524;2023-04-22T06:34:46;98231.03;;;13.70;74.57
46007;BME280;31738;50.188;8.524;2023-04-22T06:37:12;98235.50;;;13.74;74.17
46007;BME280;31738;50.188;8.524;2023-04-22T06:39:38;98239.34;;;13.82;74.05
46007;BME280;31738;50.188;8.524;2023-04-22T06:42:22;98240.00;;;13.88;73.27
46007;BME280;31738;50.188;8.524;2023-04-22T06:45:08;98230.88;;;13.97;73.30
46007;BME280;31738;50.188;8.524;2023-04-22T06:48:03;98238.63;;;13.90;74.19
46007;BME280;31738;50.188;8.524;2023-04-22T06:50:43;98236.78;;;13.99;73.39
46007;BME280;31738;50.188;8.524;2023-04-22T06:53:09;98223.53;;;14.11;73.87
46007;BME280;31738;50.188;8.524;2023-04-22T06:55:35;98215.66;;;14.23;73.68
46007;BME280;31738;50.188;8.524;2023-04-22T06:58:00;98210.31;;;14.32;73.79
46007;BME280;31738;50.188;8.524;2023-04-22T07:00:26;98224.69;;;14.41;73.70
46007;BME280;31738;50.188;8.524;2023-04-22T07:02:52;98235.50;;;14.49;73.28
46007;BME280;31738;50.188;8.524;2023-04-22T07:05:18;98230.44;;;14.56;72.91
46007;BME280;31738;50.188;8.524;2023-04-22T07:07:45;98236.69;;;14.65;72.26
46007;BME280;31738;50.188;8.524;2023-04-22T07:10:16;98245.13;;;14.72;72.06
46007;BME280;31738;50.188;8.524;2023-04-22T07:12:54;98238.47;;;14.78;71.74
46007;BME280;31738;50.188;8.524;2023-04-22T07:15:19;98238.22;;;14.88;71.04
46007;BME280;31738;50.188;8.524;2023-04-22T07:17:45;98242.81;;;14.96;71.01
46007;BME280;31738;50.188;8.524;2023-04-22T07:20:10;98244.28;;;15.02;70.46
46007;BME280;31738;50.188;8.524;2023-04-22T07:22:36;98248.41;;;15.08;70.09
46007;BME280;31738;50.188;8.524;2023-04-22T07:25:02;98250.97;;;15.13;69.99
46007;BME280;31738;50.188;8.524;2023-04-22T07:27:28;98255.59;;;15.21;69.85
46007;BME280;31738;50.188;8.524;2023-04-22T07:29:53;98254.22;;;15.32;69.90
46007;BME280;31738;50.188;8.524;2023-04-22T07:32:19;98267.44;;;15.43;69.22
46007;BME280;31738;50.188;8.524;2023-04-22T07:34:44;98259.19;;;15.56;68.91
46007;BME280;31738;50.188;8.524;2023-04-22T07:37:10;98254.09;;;15.72;68.22
46007;BME280;31738;50.188;8.524;2023-04-22T07:39:35;98254.25;;;15.84;68.56
46007;BME280;31738;50.188;8.524;2023-04-22T07:42:01;98259.97;;;15.99;68.39
46007;BME280;31738;50.188;8.524;2023-04-22T07:44:27;98256.78;;;16.14;67.72
46007;BME280;31738;50.188;8.524;2023-04-22T07:46:53;98260.59;;;16.30;67.22
46007;BME280;31738;50.188;8.524;2023-04-22T07:49:18;98258.81;;;16.43;67.27
46007;BME280;31738;50.188;8.524;2023-04-22T07:51:44;98256.72;;;16.57;67.20
46007;BME280;31738;50.188;8.524;2023-04-22T07:54:09;98256.84;;;16.69;66.54
46007;BME280;31738;50.188;8.524;2023-04-22T07:56:35;98266.06;;;16.76;66.46
46007;BME280;31738;50.188;8.524;2023-04-22T07:59:01;98278.63;;;16.81;65.65
46007;BME280;31738;50.188;8.524;2023-04-22T08:01:26;98277.31;;;16.87;65.13
46007;BME280;31738;50.188;8.524;2023-04-22T08:03:52;98270.88;;;17.00;64.67
46007;BME280;31738;50.188;8.524;2023-04-22T08:06:17;98276.88;;;17.14;64.84
46007;BME280;31738;50.188;8.524;2023-04-22T08:08:43;98277.63;;;17.23;64.47
46007;BME280;31738;50.188;8.524;2023-04-22T08:11:08;98283.16;;;17.35;63.63
46007;BME280;31738;50.188;8.524;2023-04-22T08:13:34;98287.06;;;17.46;62.69
46007;BME280;31738;50.188;8.524;2023-04-22T08:16:00;98284.84;;;17.48;61.63
46007;BME280;31738;50.188;8.524;2023-04-22T08:18:28;98291.00;;;17.57;63.01
46007;BME280;31738;50.188;8.524;2023-04-22T08:20:54;98299.44;;;17.64;62.85
46007;BME280;31738;50.188;8.524;2023-04-22T08:23:19;98297.44;;;17.73;61.78
46007;BME280;31738;50.188;8.524;2023-04-22T08:25:46;98294.06;;;17.76;61.04
46007;BME280;31738;50.188;8.524;2023-04-22T08:28:12;98299.03;;;17.74;60.19
46007;BME280;31738;50.188;8.524;2023-04-22T08:30:37;98296.56;;;17.81;60.95
46007;BME280;31738;50.188;8.524;2023-04-22T08:33:03;98296.84;;;17.88;60.54
46007;BME280;31738;50.188;8.524;2023-04-22T08:35:28;98305.66;;;17.85;59.69
46007;BME280;31738;50.188;8.524;2023-04-22T08:37:54;98301.63;;;17.91;60.25
46007;BME280;31738;50.188;8.524;2023-04-22T08:40:19;98311.63;;;17.99;60.23
46007;BME280;31738;50.188;8.524;2023-04-22T08:42:45;98305.09;;;18.12;59.33
46007;BME280;31738;50.188;8.524;2023-04-22T08:45:11;98306.16;;;18.20;58.90
46007;BME280;31738;50.188;8.524;2023-04-22T08:47:38;98306.09;;;18.28;58.13
46007;BME280;31738;50.188;8.524;2023-04-22T08:50:04;98318.78;;;18.36;59.19
46007;BME280;31738;50.188;8.524;2023-04-22T08:52:30;98317.72;;;18.49;59.34
46007;BME280;31738;50.188;8.524;2023-04-22T08:54:56;98308.00;;;18.48;58.34
46007;BME280;31738;50.188;8.524;2023-04-22T08:57:22;98318.63;;;18.53;58.03
46007;BME280;31738;50.188;8.524;2023-04-22T08:59:49;98316.84;;;18.57;57.18
46007;BME280;31738;50.188;8.524;2023-04-22T09:02:18;98318.09;;;18.60;57.55
46007;BME280;31738;50.188;8.524;2023-04-22T09:04:49;98310.91;;;18.76;58.01
46007;BME280;31738;50.188;8.524;2023-04-22T09:07:26;98317.81;;;18.86;57.50
46007;BME280;31738;50.188;8.524;2023-04-22T09:09:56;98318.53;;;18.95;57.28
46007;BME280;31738;50.188;8.524;2023-04-22T09:12:24;98325.56;;;18.96;56.70
46007;BME280;31738;50.188;8.524;2023-04-22T09:14:50;98313.53;;;19.09;57.05
46007;BME280;31738;50.188;8.524;2023-04-22T09:17:31;98321.06;;;19.24;56.37
46007;BME280;31738;50.188;8.524;2023-04-22T09:20:01;98315.03;;;19.18;56.67
46007;BME280;31738;50.188;8.524;2023-04-22T09:22:28;98321.19;;;19.27;55.89
46007;BME280;31738;50.188;8.524;2023-04-22T09:25:03;98320.25;;;19.23;56.10
46007;BME280;31738;50.188;8.524;2023-04-22T09:27:28;98329.56;;;19.22;56.59
46007;BME280;31738;50.188;8.524;2023-04-22T09:29:54;98331.38;;;19.30;56.32
46007;BME280;31738;50.188;8.524;2023-04-22T09:32:19;98332.19;;;19.31;56.67
46007;BME280;31738;50.188;8.524;2023-04-22T09:34:52;98340.22;;;19.27;55.55
46007;BME280;31738;50.188;8.524;2023-04-22T09:37:28;98333.84;;;19.23;56.20
46007;BME280;31738;50.188;8.524;2023-04-22T09:39:53;98348.69;;;19.26;55.34
46007;BME280;31738;50.188;8.524;2023-04-22T09:42:20;98341.09;;;19.19;55.30
46007;BME280;31738;50.188;8.524;2023-04-22T09:44:47;98334.31;;;19.25;54.61
46007;BME280;31738;50.188;8.524;2023-04-22T09:47:13;98343.28;;;19.38;54.87
46007;BME280;31738;50.188;8.524;2023-04-22T09:49:38;98332.84;;;19.52;54.74
46007;BME280;31738;50.188;8.524;2023-04-22T09:52:04;98334.19;;;19.58;54.03
46007;BME280;31738;50.188;8.524;2023-04-22T09:54:30;98337.84;;;19.62;53.22
46007;BME280;31738;50.188;8.524;2023-04-22T09:56:56;98335.56;;;19.64;53.52
46007;BME280;31738;50.188;8.524;2023-04-22T09:59:22;98343.28;;;19.62;54.33
46007;BME280;31738;50.188;8.524;2023-04-22T10:01:51;98334.53;;;19.56;53.68
46007;BME280;31738;50.188;8.524;2023-04-22T10:04:17;98336.47;;;19.68;54.72
46007;BME280;31738;50.188;8.524;2023-04-22T10:06:49;98333.03;;;19.83;54.87
46007;BME280;31738;50.188;8.524;2023-04-22T10:09:20;98323.47;;;20.01;54.49
46007;BME280;31738;50.188;8.524;2023-04-22T10:11:47;98325.72;;;20.23;54.54
46007;BME280;31738;50.188;8.524;2023-04-22T10:14:12;98332.69;;;20.36;53.41
46007;BME280;31738;50.188;8.524;2023-04-22T10:16:39;98326.06;;;20.49;52.48
46007;BME280;31738;50.188;8.524;2023-04-22T10:19:09;98326.81;;;20.62;53.14
46007;BME280;31738;50.188;8.524;2023-04-22T10:21:40;98325.84;;;20.85;53.29
46007;BME280;31738;50.188;8.524;2023-04-22T10:24:17;98338.03;;;21.03;50.52
46007;BME280;31738;50.188;8.524;2023-04-22T10:26:55;98335.97;;;21.12;51.60
46007;BME280;31738;50.188;8.524;2023-04-22T10:29:23;98333.22;;;20.97;51.67
46007;BME280;31738;50.188;8.524;2023-04-22T10:32:02;98332.69;;;21.22;51.83
46007;BME280;31738;50.188;8.524;2023-04-22T10:34:29;98334.09;;;21.32;51.21
46007;BME280;31738;50.188;8.524;2023-04-22T10:36:59;98338.31;;;21.45;50.78
46007;BME280;31738;50.188;8.524;2023-04-22T10:39:26;98343.59;;;21.53;49.46
46007;BME280;31738;50.188;8.524;2023-04-22T10:42:04;98350.97;;;21.68;48.36
46007;BME280;31738;50.188;8.524;2023-04-22T10:44:50;98341.03;;;21.60;49.68
46007;BME280;31738;50.188;8.524;2023-04-22T10:47:27;98333.78;;;21.83;50.52
46007;BME280;31738;50.188;8.524;2023-04-22T10:50:17;98332.34;;;22.24;50.16
46007;BME280;31738;50.188;8.524;2023-04-22T10:52:47;98348.22;;;22.19;48.29
46007;BME280;31738;50.188;8.524;2023-04-22T10:55:13;98348.06;;;22.31;47.26
46007;BME280;31738;50.188;8.524;2023-04-22T10:57:41;98356.13;;;22.43;46.81
46007;BME280;31738;50.188;8.524;2023-04-22T11:00:27;98345.66;;;22.64;46.49
46007;BME280;31738;50.188;8.524;2023-04-22T11:05:25;98348.50;;;22.90;46.26
46007;BME280;31738;50.188;8.524;2023-04-22T11:07:53;98341.81;;;23.10;46.39
46007;BME280;31738;50.188;8.524;2023-04-22T11:10:42;98344.84;;;23.05;45.72
46007;BME280;31738;50.188;8.524;2023-04-22T11:13:13;98355.34;;;22.80;45.48
46007;BME280;31738;50.188;8.524;2023-04-22T11:15:41;98366.25;;;22.58;45.71
46007;BME280;31738;50.188;8.524;2023-04-22T11:18:08;98361.84;;;22.53;46.52
46007;BME280;31738;50.188;8.524;2023-04-22T11:20:35;98362.81;;;22.45;47.13
46007;BME280;31738;50.188;8.524;2023-04-22T11:23:02;98362.63;;;22.54;46.27
46007;BME280;31738;50.188;8.524;2023-04-22T11:25:27;98352.84;;;22.72;46.09
46007;BME280;31738;50.188;8.524;2023-04-22T11:27:53;98357.00;;;22.85;45.51
46007;BME280;31738;50.188;8.524;2023-04-22T11:30:25;98346.44;;;23.06;45.83
46007;BME280;31738;50.188;8.524;2023-04-22T11:32:53;98335.78;;;23.23;45.92
46007;BME280;31738;50.188;8.524;2023-04-22T11:35:28;98335.81;;;23.46;45.27
46007;BME280;31738;50.188;8.524;2023-04-22T11:38:02;98330.75;;;23.74;45.89
46007;BME280;31738;50.188;8.524;2023-04-22T11:40:33;98332.97;;;23.91;44.04
46007;BME280;31738;50.188;8.524;2023-04-22T11:43:00;98333.88;;;23.99;42.81
46007;BME280;31738;50.188;8.524;2023-04-22T11:45:27;98341.00;;;24.03;43.52
46007;BME280;31738;50.188;8.524;2023-04-22T11:47:53;98350.56;;;24.16;42.50
46007;BME280;31738;50.188;8.524;2023-04-22T11:50:26;98345.19;;;24.23;42.61
46007;BME280;31738;50.188;8.524;2023-04-22T11:53:16;98335.09;;;24.31;42.83
46007;BME280;31738;50.188;8.524;2023-04-22T11:55:43;98354.00;;;24.39;42.33
46007;BME280;31738;50.188;8.524;2023-04-22T11:58:14;98352.47;;;24.42;42.88
46007;BME280;31738;50.188;8.524;2023-04-22T12:00:45;98348.25;;;24.51;42.29
46007;BME280;31738;50.188;8.524;2023-04-22T12:05:41;98349.59;;;24.64;40.75
46007;BME280;31738;50.188;8.524;2023-04-22T12:08:09;98338.78;;;24.75;41.89
46007;BME280;31738;50.188;8.524;2023-04-22T12:10:43;98326.06;;;24.96;42.73
46007;BME280;31738;50.188;8.524;2023-04-22T12:13:16;98337.94;;;25.07;40.93
46007;BME280;31738;50.188;8.524;2023-04-22T12:15:43;98352.44;;;25.08;40.47
46007;BME280;31738;50.188;8.524;2023-04-22T12:18:09;98346.66;;;25.16;40.91
46007;BME280;31738;50.188;8.524;2023-04-22T12:20:38;98353.38;;;25.23;40.72
46007;BME280;31738;50.188;8.524;2023-04-22T12:23:04;98363.25;;;25.31;39.08
46007;BME280;31738;50.188;8.524;2023-04-22T12:25:29;98364.91;;;25.35;38.78
46007;BME280;31738;50.188;8.524;2023-04-22T12:27:58;98361.44;;;25.42;39.01
46007;BME280;31738;50.188;8.524;2023-04-22T12:30:23;98346.50;;;25.43;39.89
46007;BME280;31738;50.188;8.524;2023-04-22T12:32:49;98368.94;;;25.52;39.27
46007;BME280;31738;50.188;8.524;2023-04-22T12:35:15;98373.66;;;25.51;38.60
46007;BME280;31738;50.188;8.524;2023-04-22T12:37:41;98370.91;;;25.48;38.29
46007;BME280;31738;50.188;8.524;2023-04-22T12:40:07;98380.25;;;25.40;37.63
46007;BME280;31738;50.188;8.524;2023-04-22T12:42:34;98381.81;;;25.41;37.58
46007;BME280;31738;50.188;8.524;2023-04-22T12:45:00;98383.44;;;25.49;37.86
46007;BME280;31738;50.188;8.524;2023-04-22T12:47:26;98378.75;;;25.53;38.54
46007;BME280;31738;50.188;8.524;2023-04-22T12:52:59;98373.22;;;25.46;38.65
46007;BME280;31738;50.188;8.524;2023-04-22T12:55:25;98373.16;;;25.39;38.68
46007;BME280;31738;50.188;8.524;2023-04-22T12:57:50;98380.41;;;25.20;37.52
46007;BME280;31738;50.188;8.524;2023-04-22T13:00:16;98374.09;;;25.16;38.38
46007;BME280;31738;50.188;8.524;2023-04-22T13:02:43;98365.53;;;25.22;37.97
46007;BME280;31738;50.188;8.524;2023-04-22T13:05:10;98356.88;;;25.19;38.63
46007;BME280;31738;50.188;8.524;2023-04-22T13:07:36;98365.72;;;25.02;39.29
46007;BME280;31738;50.188;8.524;2023-04-22T13:10:02;98353.03;;;24.87;39.43